Time;durP1;ratioP1;P1;durP2;ratioP2;P2;SDS_P1;SDS_P2;PMS_P1;PMS_P2;Temp;Humidity;BMP_temperature;BMP_pressure;BME280_temperature;BME280_humidity;BME280_pressure;Samples;Min_cycle;Max_cycle;Signal;HPM_P1;HPM_P2
2023/12/23 00:01:19;;;;;;;;;4.00;4.00;;;;;;;;5082321;28;46379;-77
2023/12/23 00:03:45;;;;;;;;;5.00;5.00;;;;;;;;5082921;28;45287;-78
2023/12/23 00:06:10;;;;;;;;;4.67;4.00;;;;;;;;5098683;27;45234;-78
2023/12/23 00:08:35;;;;;;;;;7.00;5.00;;;;;;;;5083040;28;45203;-78
2023/12/23 00:11:00;;;;;;;;;3.67;3.67;;;;;;;;5081501;28;46265;-78
2023/12/23 00:13:25;;;;;;;;;2.00;2.00;;;;;;;;5084327;28;45350;-78
2023/12/23 00:15:51;;;;;;;;;3.67;3.33;;;;;;;;5099157;27;45342;-79
2023/12/23 00:18:16;;;;;;;;;2.33;2.33;;;;;;;;5083072;28;45306;-78
2023/12/23 00:20:41;;;;;;;;;3.67;3.33;;;;;;;;5081260;28;48078;-78
2023/12/23 00:23:06;;;;;;;;;6.00;3.33;;;;;;;;5083092;28;45349;-77
2023/12/23 00:25:31;;;;;;;;;3.00;3.00;;;;;;;;5084388;28;45223;-78
2023/12/23 00:27:56;;;;;;;;;1.00;1.00;;;;;;;;5081885;28;45903;-78
2023/12/23 00:30:22;;;;;;;;;3.00;2.00;;;;;;;;5090838;27;48133;-78
2023/12/23 00:32:47;;;;;;;;;3.67;2.33;;;;;;;;5081731;28;45599;-78
2023/12/23 00:35:12;;;;;;;;;2.00;2.00;;;;;;;;5082343;28;45305;-78
2023/12/23 00:37:37;;;;;;;;;4.00;4.00;;;;;;;;5081525;28;45300;-78
2023/12/23 00:40:03;;;;;;;;;2.67;2.00;;;;;;;;5082862;28;48431;-78
2023/12/23 00:42:28;;;;;;;;;3.00;3.00;;;;;;;;5082122;28;45420;-78
2023/12/23 00:44:53;;;;;;;;;0.00;0.00;;;;;;;;5082368;28;45389;-78
2023/12/23 00:47:21;;;;;;;;;2.33;1.00;;;;;;;;5081751;28;45333;-78
2023/12/23 00:49:46;;;;;;;;;4.67;2.00;;;;;;;;5081975;28;45504;-78
2023/12/23 00:52:11;;;;;;;;;4.00;2.67;;;;;;;;5080575;28;46061;-78
2023/12/23 00:54:37;;;;;;;;;4.00;2.00;;;;;;;;5082108;28;45391;-77
2023/12/23 00:57:02;;;;;;;;;1.00;1.00;;;;;;;;5081335;28;45286;-77
2023/12/23 00:59:27;;;;;;;;;1.00;1.00;;;;;;;;5081716;28;46290;-79
2023/12/23 01:01:52;;;;;;;;;2.00;2.00;;;;;;;;5063294;28;45446;-77
2023/12/23 01:04:17;;;;;;;;;1.67;1.33;;;;;;;;5080678;28;45334;-78
2023/12/23 01:06:43;;;;;;;;;2.00;0.33;;;;;;;;5081571;28;45248;-79
2023/12/23 01:09:08;;;;;;;;;2.00;2.00;;;;;;;;5080269;28;47875;-77
2023/12/23 01:11:33;;;;;;;;;1.00;1.00;;;;;;;;5080303;28;45247;-77
2023/12/23 01:13:58;;;;;;;;;1.00;0.67;;;;;;;;5081846;28;45360;-77
2023/12/23 01:16:24;;;;;;;;;2.00;1.00;;;;;;;;5081386;28;45569;-78
2023/12/23 01:18:49;;;;;;;;;2.33;1.00;;;;;;;;5063095;28;47528;-78
2023/12/23 01:21:15;;;;;;;;;1.00;1.00;;;;;;;;5081499;28;45241;-78
2023/12/23 01:23:40;;;;;;;;;1.33;1.00;;;;;;;;5080133;28;45298;-78
2023/12/23 01:26:05;;;;;;;;;1.00;1.00;;;;;;;;5080426;28;46082;-78
2023/12/23 01:28:30;;;;;;;;;3.00;1.00;;;;;;;;5063387;28;46317;-79
2023/12/23 01:30:55;;;;;;;;;2.00;2.00;;;;;;;;5080511;28;45247;-78
2023/12/23 01:33:20;;;;;;;;;1.00;1.00;;;;;;;;5063380;28;45360;-78
2023/12/23 01:35:46;;;;;;;;;2.33;2.00;;;;;;;;5063100;28;47066;-77
2023/12/23 01:38:11;;;;;;;;;5.00;2.33;;;;;;;;5081035;28;46076;-79
2023/12/23 01:40:36;;;;;;;;;1.00;1.00;;;;;;;;5080039;28;46046;-78
2023/12/23 01:43:01;;;;;;;;;2.00;2.00;;;;;;;;5079508;28;45231;-78
2023/12/23 01:45:27;;;;;;;;;1.33;1.33;;;;;;;;5062668;28;47256;-78
2023/12/23 01:47:52;;;;;;;;;1.00;1.00;;;;;;;;5062601;28;47468;-77
2023/12/23 01:50:19;;;;;;;;;2.00;2.00;;;;;;;;5081410;28;45259;-77
2023/12/23 01:52:45;;;;;;;;;1.00;1.00;;;;;;;;5081450;28;45354;-78
2023/12/23 01:55:10;;;;;;;;;1.67;1.33;;;;;;;;5079520;28;46037;-78
2023/12/23 01:57:36;;;;;;;;;2.00;1.00;;;;;;;;5068686;28;47331;-78
2023/12/23 02:00:01;;;;;;;;;0.33;0.33;;;;;;;;5080686;28;45252;-78
2023/12/23 02:02:29;;;;;;;;;1.00;1.00;;;;;;;;5096301;27;45349;-78
2023/12/23 02:04:58;;;;;;;;;0.33;0.33;;;;;;;;5080448;28;45606;-78
2023/12/23 02:07:23;;;;;;;;;1.00;1.00;;;;;;;;5080634;27;45384;-79
2023/12/23 02:09:48;;;;;;;;;1.00;1.00;;;;;;;;5096326;27;45774;-78
2023/12/23 02:12:24;;;;;;;;;2.00;1.67;;;;;;;;5097012;27;45426;-78
2023/12/23 02:15:02;;;;;;;;;0.33;0.33;;;;;;;;5096634;27;46327;-78
2023/12/23 02:17:28;;;;;;;;;1.00;0.67;;;;;;;;5096347;27;47340;-78
2023/12/23 02:19:53;;;;;;;;;0.00;0.00;;;;;;;;5080151;28;45281;-78
2023/12/23 02:22:18;;;;;;;;;1.00;1.00;;;;;;;;5080377;28;45386;-78
2023/12/23 02:24:43;;;;;;;;;1.00;1.00;;;;;;;;5080701;28;45307;-77
2023/12/23 02:27:10;;;;;;;;;1.67;1.67;;;;;;;;5080761;28;45634;-78
2023/12/23 02:29:36;;;;;;;;;0.00;0.00;;;;;;;;5080468;28;45259;-77
2023/12/23 02:32:02;;;;;;;;;2.00;1.00;;;;;;;;5062487;28;45240;-78
2023/12/23 02:34:28;;;;;;;;;0.33;0.33;;;;;;;;5079382;28;45423;-78
2023/12/23 02:36:53;;;;;;;;;0.67;0.67;;;;;;;;5080732;28;46221;-80
2023/12/23 02:39:18;;;;;;;;;1.33;1.33;;;;;;;;5080421;28;45353;-78
2023/12/23 02:41:43;;;;;;;;;1.00;1.00;;;;;;;;5080558;28;45315;-78
2023/12/23 02:44:08;;;;;;;;;0.33;0.33;;;;;;;;5078538;28;46543;-78
2023/12/23 02:46:34;;;;;;;;;2.00;1.00;;;;;;;;5079686;28;45358;-77
2023/12/23 02:49:00;;;;;;;;;0.67;0.67;;;;;;;;5077986;28;45293;-79
2023/12/23 02:51:25;;;;;;;;;1.67;0.00;;;;;;;;5060540;28;45317;-78
2023/12/23 02:53:50;;;;;;;;;1.00;1.00;;;;;;;;5077968;28;46012;-78
2023/12/23 02:56:15;;;;;;;;;0.00;0.00;;;;;;;;5079705;28;46784;-78
2023/12/23 02:58:40;;;;;;;;;0.00;0.00;;;;;;;;5077321;28;45382;-78
2023/12/23 03:01:07;;;;;;;;;1.00;1.00;;;;;;;;5078550;28;45427;-79
2023/12/23 03:03:32;;;;;;;;;0.00;0.00;;;;;;;;5095290;27;47056;-78
2023/12/23 03:05:57;;;;;;;;;1.33;1.33;;;;;;;;5078216;28;47330;-78
2023/12/23 03:08:23;;;;;;;;;0.67;0.67;;;;;;;;5079892;28;45292;-78
2023/12/23 03:10:48;;;;;;;;;1.00;1.00;;;;;;;;5080668;28;45360;-79
2023/12/23 03:13:13;;;;;;;;;1.00;1.00;;;;;;;;5080047;28;45194;-79
2023/12/23 03:15:38;;;;;;;;;2.00;2.00;;;;;;;;5095218;27;48451;-78
2023/12/23 03:18:03;;;;;;;;;0.67;0.67;;;;;;;;5095797;27;45689;-79
2023/12/23 03:20:29;;;;;;;;;1.00;1.00;;;;;;;;5079883;28;45483;-78
2023/12/23 03:22:55;;;;;;;;;6.33;3.67;;;;;;;;5079572;27;45301;-78
2023/12/23 03:25:20;;;;;;;;;6.33;6.00;;;;;;;;5080376;28;46189;-79
2023/12/23 03:27:45;;;;;;;;;0.33;0.33;;;;;;;;5079646;28;45306;-78
2023/12/23 03:30:11;;;;;;;;;0.00;0.00;;;;;;;;5095498;27;45375;-78
2023/12/23 03:32:36;;;;;;;;;1.00;1.00;;;;;;;;5095078;27;46522;-79
2023/12/23 03:35:01;;;;;;;;;0.33;0.00;;;;;;;;5079140;28;45357;-78
2023/12/23 03:37:27;;;;;;;;;0.00;0.00;;;;;;;;5095012;27;46340;-78
2023/12/23 03:39:52;;;;;;;;;1.00;1.00;;;;;;;;5095269;27;45333;-79
2023/12/23 03:42:17;;;;;;;;;2.00;1.00;;;;;;;;5079755;28;45568;-77
2023/12/23 03:44:42;;;;;;;;;2.00;1.00;;;;;;;;5079666;28;45436;-77
2023/12/23 03:47:07;;;;;;;;;3.00;3.00;;;;;;;;5081850;28;45309;-79
2023/12/23 03:49:33;;;;;;;;;3.00;3.00;;;;;;;;5081389;28;45419;-78
2023/12/23 03:51:58;;;;;;;;;5.67;5.67;;;;;;;;5081427;28;47606;-78
2023/12/23 03:54:23;;;;;;;;;4.67;4.00;;;;;;;;5083463;28;46450;-77
2023/12/23 03:56:48;;;;;;;;;3.00;3.00;;;;;;;;5099419;27;45547;-79
2023/12/23 03:59:14;;;;;;;;;2.00;2.00;;;;;;;;5064517;28;45539;-77
2023/12/23 04:01:39;;;;;;;;;4.00;3.67;;;;;;;;5081958;28;45879;-79
2023/12/23 04:04:05;;;;;;;;;3.33;2.00;;;;;;;;5082850;28;45377;-77
2023/12/23 04:06:30;;;;;;;;;0.33;0.33;;;;;;;;5082801;28;45374;-78
2023/12/23 04:08:55;;;;;;;;;1.67;1.00;;;;;;;;5083013;28;45336;-78
2023/12/23 04:11:21;;;;;;;;;0.00;0.00;;;;;;;;5065548;28;46423;-78
2023/12/23 04:13:46;;;;;;;;;1.00;1.00;;;;;;;;5084006;28;45366;-78
2023/12/23 04:16:11;;;;;;;;;0.00;0.00;;;;;;;;5081407;28;45398;-78
2023/12/23 04:18:36;;;;;;;;;0.00;0.00;;;;;;;;5082989;28;45319;-78
2023/12/23 04:21:02;;;;;;;;;3.00;1.00;;;;;;;;5082288;28;45370;-77
2023/12/23 04:23:27;;;;;;;;;0.00;0.00;;;;;;;;5083410;28;46416;-79
2023/12/23 04:25:53;;;;;;;;;0.00;0.00;;;;;;;;5063930;28;45702;-78
2023/12/23 04:28:24;;;;;;;;;0.67;0.00;;;;;;;;5082240;28;45284;-77
2023/12/23 04:30:53;;;;;;;;;0.00;0.00;;;;;;;;5081964;28;45316;-77
2023/12/23 04:33:18;;;;;;;;;0.00;0.00;;;;;;;;5081080;28;47282;-77
2023/12/23 04:35:43;;;;;;;;;0.00;0.00;;;;;;;;5082007;28;45210;-78
2023/12/23 04:38:09;;;;;;;;;0.00;0.00;;;;;;;;5082592;28;45390;-78
2023/12/23 04:40:34;;;;;;;;;1.00;1.00;;;;;;;;5080912;28;46264;-77
2023/12/23 04:42:59;;;;;;;;;0.33;0.33;;;;;;;;5081839;28;46339;-79
2023/12/23 04:45:24;;;;;;;;;0.67;0.67;;;;;;;;5082280;28;45269;-78
2023/12/23 04:47:50;;;;;;;;;0.00;0.00;;;;;;;;5082851;28;45305;-78
2023/12/23 04:50:15;;;;;;;;;0.00;0.00;;;;;;;;5081823;28;45371;-78
2023/12/23 04:52:40;;;;;;;;;0.00;0.00;;;;;;;;5082536;28;45429;-78
2023/12/23 04:55:08;;;;;;;;;0.00;0.00;;;;;;;;5080845;28;46009;-78
2023/12/23 04:57:34;;;;;;;;;0.00;0.00;;;;;;;;5082141;28;45321;-78
2023/12/23 04:59:59;;;;;;;;;0.00;0.00;;;;;;;;5081758;28;45407;-79
2023/12/23 05:02:24;;;;;;;;;0.00;0.00;;;;;;;;5097289;27;48496;-77
2023/12/23 05:04:49;;;;;;;;;0.00;0.00;;;;;;;;5082385;28;45511;-79
2023/12/23 05:07:14;;;;;;;;;0.00;0.00;;;;;;;;5082820;28;45378;-78
2023/12/23 05:09:40;;;;;;;;;0.00;0.00;;;;;;;;5081780;28;45481;-78
2023/12/23 05:12:05;;;;;;;;;0.00;0.00;;;;;;;;5081640;28;46360;-77
2023/12/23 05:14:30;;;;;;;;;0.00;0.00;;;;;;;;5081498;28;45305;-78
2023/12/23 05:16:55;;;;;;;;;0.00;0.00;;;;;;;;5081499;28;45497;-77
2023/12/23 05:19:21;;;;;;;;;1.00;1.00;;;;;;;;5079679;28;47376;-78
2023/12/23 05:21:46;;;;;;;;;0.00;0.00;;;;;;;;5080055;28;46990;-78
2023/12/23 05:24:12;;;;;;;;;0.00;0.00;;;;;;;;5081641;28;45385;-78
2023/12/23 05:26:37;;;;;;;;;0.00;0.00;;;;;;;;5081552;27;45253;-77
2023/12/23 05:29:02;;;;;;;;;0.67;0.67;;;;;;;;5081043;28;45440;-77
2023/12/23 05:31:28;;;;;;;;;0.00;0.00;;;;;;;;5079821;28;48583;-78
2023/12/23 05:33:55;;;;;;;;;0.00;0.00;;;;;;;;5081147;28;45312;-78
2023/12/23 05:36:20;;;;;;;;;0.00;0.00;;;;;;;;5079588;28;45358;-78
2023/12/23 05:38:45;;;;;;;;;0.00;0.00;;;;;;;;5081076;27;45492;-78
2023/12/23 05:41:11;;;;;;;;;0.67;0.67;;;;;;;;5096520;27;47251;-78
2023/12/23 05:43:36;;;;;;;;;0.00;0.00;;;;;;;;5081205;28;45156;-78
2023/12/23 05:46:01;;;;;;;;;0.00;0.00;;;;;;;;5096692;27;45197;-78
2023/12/23 05:48:27;;;;;;;;;0.00;0.00;;;;;;;;5080835;28;45485;-78
2023/12/23 05:50:52;;;;;;;;;0.00;0.00;;;;;;;;5081342;27;45296;-78
2023/12/23 05:53:17;;;;;;;;;2.00;1.67;;;;;;;;5081013;28;45471;-78
2023/12/23 05:55:42;;;;;;;;;0.00;0.00;;;;;;;;5082260;27;45386;-78
2023/12/23 05:58:07;;;;;;;;;2.67;0.00;;;;;;;;5064818;28;47241;-78
2023/12/23 06:00:32;;;;;;;;;0.00;0.00;;;;;;;;5080683;28;45430;-77
2023/12/23 06:02:58;;;;;;;;;0.00;0.00;;;;;;;;5080555;28;45327;-78
2023/12/23 06:05:23;;;;;;;;;0.00;0.00;;;;;;;;5062633;28;45367;-76
2023/12/23 06:07:48;;;;;;;;;1.67;0.00;;;;;;;;5080786;28;45341;-78
2023/12/23 06:10:13;;;;;;;;;0.00;0.00;;;;;;;;5079928;28;45313;-78
2023/12/23 06:12:38;;;;;;;;;0.00;0.00;;;;;;;;5081250;28;45416;-78
2023/12/23 06:15:04;;;;;;;;;0.00;0.00;;;;;;;;5081197;28;45238;-79
2023/12/23 06:17:30;;;;;;;;;1.00;1.00;;;;;;;;5083899;28;45560;-78
2023/12/23 06:19:55;;;;;;;;;0.00;0.00;;;;;;;;5082120;28;46505;-78
2023/12/23 06:22:20;;;;;;;;;0.00;0.00;;;;;;;;5064542;28;45955;-78
2023/12/23 06:24:45;;;;;;;;;1.00;1.00;;;;;;;;5063320;28;45329;-77
2023/12/23 06:27:10;;;;;;;;;0.00;0.00;;;;;;;;5086232;28;45318;-78
2023/12/23 06:29:35;;;;;;;;;0.00;0.00;;;;;;;;5080864;28;46171;-76
2023/12/23 06:32:02;;;;;;;;;1.00;1.00;;;;;;;;5080411;28;45344;-76
2023/12/23 06:34:27;;;;;;;;;0.00;0.00;;;;;;;;5080049;28;45287;-77
2023/12/23 06:36:52;;;;;;;;;0.00;0.00;;;;;;;;5080213;28;45348;-77
2023/12/23 06:39:17;;;;;;;;;2.33;0.00;;;;;;;;5080086;28;45148;-77
2023/12/23 06:41:42;;;;;;;;;2.00;1.33;;;;;;;;5080154;28;45335;-76
2023/12/23 06:44:07;;;;;;;;;0.00;0.00;;;;;;;;5080313;28;45216;-77
2023/12/23 06:46:33;;;;;;;;;3.67;2.00;;;;;;;;5061696;28;46270;-77
2023/12/23 06:48:58;;;;;;;;;0.00;0.00;;;;;;;;5079934;28;45213;-77
2023/12/23 06:51:23;;;;;;;;;1.00;1.00;;;;;;;;5079831;28;45666;-77
2023/12/23 06:53:48;;;;;;;;;0.00;0.00;;;;;;;;5061833;28;45558;-78
2023/12/23 06:56:13;;;;;;;;;1.00;0.00;;;;;;;;5061538;28;46200;-78
2023/12/23 06:58:39;;;;;;;;;0.00;0.00;;;;;;;;5080019;28;45338;-79
2023/12/23 07:01:04;;;;;;;;;2.00;1.00;;;;;;;;5079641;27;45248;-78
2023/12/23 07:03:30;;;;;;;;;1.00;1.00;;;;;;;;5061509;28;45404;-78
2023/12/23 07:05:55;;;;;;;;;1.00;0.00;;;;;;;;5079219;28;45252;-78
2023/12/23 07:08:20;;;;;;;;;1.00;1.00;;;;;;;;5062652;28;47470;-78
2023/12/23 07:10:45;;;;;;;;;0.00;0.00;;;;;;;;5079040;28;45417;-78
2023/12/23 07:13:11;;;;;;;;;0.00;0.00;;;;;;;;5079762;28;45328;-78
2023/12/23 07:15:36;;;;;;;;;1.33;1.33;;;;;;;;5080944;28;45507;-78
2023/12/23 07:18:01;;;;;;;;;1.67;1.00;;;;;;;;5080236;28;45541;-79
2023/12/23 07:20:27;;;;;;;;;0.00;0.00;;;;;;;;5082028;28;45292;-78
2023/12/23 07:22:53;;;;;;;;;0.00;0.00;;;;;;;;5084360;28;45445;-79
2023/12/23 07:25:18;;;;;;;;;0.33;0.33;;;;;;;;5066388;28;47319;-79
2023/12/23 07:27:44;;;;;;;;;0.00;0.00;;;;;;;;5083899;28;48241;-81
2023/12/23 07:30:10;;;;;;;;;0.00;0.00;;;;;;;;5064745;28;45399;-80
2023/12/23 07:32:35;;;;;;;;;1.00;0.00;;;;;;;;5082913;27;45508;-79
2023/12/23 07:35:00;;;;;;;;;0.33;0.33;;;;;;;;5082895;28;45304;-80
2023/12/23 07:37:25;;;;;;;;;0.67;0.67;;;;;;;;5083039;28;45543;-79
2023/12/23 07:39:50;;;;;;;;;0.00;0.00;;;;;;;;5083061;28;45217;-80
2023/12/23 07:42:15;;;;;;;;;1.00;1.00;;;;;;;;5083688;28;45276;-79
2023/12/23 07:44:41;;;;;;;;;1.00;0.00;;;;;;;;5081703;28;46988;-77
2023/12/23 07:47:09;;;;;;;;;0.00;0.00;;;;;;;;5081746;28;47046;-77
2023/12/23 07:49:34;;;;;;;;;0.67;0.00;;;;;;;;5082179;28;45200;-79
2023/12/23 07:51:59;;;;;;;;;0.33;0.33;;;;;;;;5082468;28;45559;-78
2023/12/23 07:54:25;;;;;;;;;1.00;1.00;;;;;;;;5080747;28;46069;-79
2023/12/23 07:56:50;;;;;;;;;1.00;1.00;;;;;;;;5081802;27;46049;-79
2023/12/23 07:59:15;;;;;;;;;0.00;0.00;;;;;;;;5070732;28;45951;-80
2023/12/23 08:01:42;;;;;;;;;2.00;1.00;;;;;;;;5081858;28;45327;-78
2023/12/23 08:04:07;;;;;;;;;1.00;0.00;;;;;;;;5082338;28;45428;-78
2023/12/23 08:06:33;;;;;;;;;0.33;0.33;;;;;;;;5081594;28;46384;-78
2023/12/23 08:08:58;;;;;;;;;0.67;0.67;;;;;;;;5064410;28;45434;-80
2023/12/23 08:11:23;;;;;;;;;2.33;2.33;;;;;;;;5082622;28;45298;-79
2023/12/23 08:13:48;;;;;;;;;1.00;1.00;;;;;;;;5081553;28;45346;-78
2023/12/23 08:16:13;;;;;;;;;1.00;1.00;;;;;;;;5081416;28;46130;-78
2023/12/23 08:18:40;;;;;;;;;1.00;1.00;;;;;;;;5082036;28;45469;-78
2023/12/23 08:21:06;;;;;;;;;1.00;1.00;;;;;;;;5082211;28;45293;-78
2023/12/23 08:23:31;;;;;;;;;0.00;0.00;;;;;;;;5076758;28;45555;-77
2023/12/23 08:25:56;;;;;;;;;2.00;2.00;;;;;;;;5062727;28;47156;-77
2023/12/23 08:28:21;;;;;;;;;1.00;0.67;;;;;;;;5078725;28;45302;-79
2023/12/23 08:30:46;;;;;;;;;0.00;0.00;;;;;;;;5062503;28;45340;-79
2023/12/23 08:33:12;;;;;;;;;2.00;2.00;;;;;;;;5080407;28;45512;-77
2023/12/23 08:35:37;;;;;;;;;1.67;1.00;;;;;;;;5081069;28;45554;-78
2023/12/23 08:38:02;;;;;;;;;1.33;1.00;;;;;;;;5080854;28;45658;-79
2023/12/23 08:40:27;;;;;;;;;0.00;0.00;;;;;;;;5079438;28;45453;-79
2023/12/23 08:42:53;;;;;;;;;0.00;0.00;;;;;;;;5080454;28;45315;-78
2023/12/23 08:45:18;;;;;;;;;1.00;1.00;;;;;;;;5081406;28;45314;-79
2023/12/23 08:47:44;;;;;;;;;0.00;0.00;;;;;;;;5079896;28;45281;-79
2023/12/23 08:50:09;;;;;;;;;0.67;0.67;;;;;;;;5080357;28;45213;-79
2023/12/23 08:52:34;;;;;;;;;0.67;0.67;;;;;;;;5080724;28;45288;-79
2023/12/23 08:55:00;;;;;;;;;1.00;1.00;;;;;;;;5079703;28;48328;-80
2023/12/23 08:57:25;;;;;;;;;2.00;1.00;;;;;;;;5080284;28;45467;-81
2023/12/23 08:59:50;;;;;;;;;2.00;1.33;;;;;;;;5080752;28;45307;-80
2023/12/23 09:02:15;;;;;;;;;1.00;0.00;;;;;;;;5096619;27;45821;-79
2023/12/23 09:04:40;;;;;;;;;3.67;2.67;;;;;;;;5080347;28;46359;-78
2023/12/23 09:07:08;;;;;;;;;1.00;1.00;;;;;;;;5062661;28;45366;-79
2023/12/23 09:09:33;;;;;;;;;1.00;0.67;;;;;;;;5080015;28;45335;-78
2023/12/23 09:11:58;;;;;;;;;1.00;1.00;;;;;;;;5079639;28;45385;-79
2023/12/23 09:14:23;;;;;;;;;1.00;1.00;;;;;;;;5080469;28;45416;-79
2023/12/23 09:16:48;;;;;;;;;1.00;1.00;;;;;;;;5078008;27;45402;-78
2023/12/23 09:19:14;;;;;;;;;1.00;0.00;;;;;;;;5078664;28;45552;-79
2023/12/23 09:21:39;;;;;;;;;1.00;1.00;;;;;;;;5079856;28;45394;-80
2023/12/23 09:24:04;;;;;;;;;0.00;0.00;;;;;;;;5080178;28;45354;-79
2023/12/23 09:26:29;;;;;;;;;1.33;1.00;;;;;;;;5079628;28;45445;-77
2023/12/23 09:28:54;;;;;;;;;1.00;1.00;;;;;;;;5084571;27;45424;-78
2023/12/23 09:31:20;;;;;;;;;1.33;0.33;;;;;;;;5090229;27;45453;-79
2023/12/23 09:33:45;;;;;;;;;3.00;1.33;;;;;;;;5078626;28;48559;-78
2023/12/23 09:36:10;;;;;;;;;3.67;2.00;;;;;;;;5079012;28;45390;-78
2023/12/23 09:38:35;;;;;;;;;2.33;1.67;;;;;;;;5080385;28;45304;-75
2023/12/23 09:41:01;;;;;;;;;2.00;2.00;;;;;;;;5080310;28;45299;-79
2023/12/23 09:43:26;;;;;;;;;2.00;2.00;;;;;;;;5076505;27;47157;-81
2023/12/23 09:45:51;;;;;;;;;0.00;0.00;;;;;;;;5079897;28;45370;-78
2023/12/23 09:48:17;;;;;;;;;3.00;2.00;;;;;;;;5079972;28;45375;-80
2023/12/23 09:50:42;;;;;;;;;2.33;2.33;;;;;;;;5061532;28;46173;-80
2023/12/23 09:53:11;;;;;;;;;1.33;1.33;;;;;;;;5077790;28;46229;-77
2023/12/23 09:55:37;;;;;;;;;1.33;1.00;;;;;;;;5060991;28;45504;-79
2023/12/23 09:58:03;;;;;;;;;2.00;1.67;;;;;;;;5079427;28;45605;-80
2023/12/23 10:00:28;;;;;;;;;2.00;1.00;;;;;;;;5079402;28;45298;-79
2023/12/23 10:02:53;;;;;;;;;2.00;2.00;;;;;;;;5078874;28;45502;-79
2023/12/23 10:05:18;;;;;;;;;2.00;2.00;;;;;;;;5060943;28;45432;-79
2023/12/23 10:07:44;;;;;;;;;1.00;1.00;;;;;;;;5079427;28;45515;-80
2023/12/23 10:10:10;;;;;;;;;0.67;0.67;;;;;;;;5061188;28;47353;-79
2023/12/23 10:12:35;;;;;;;;;1.00;1.00;;;;;;;;5079017;28;46209;-80
2023/12/23 10:15:00;;;;;;;;;3.00;2.00;;;;;;;;5078630;28;45338;-80
2023/12/23 10:17:26;;;;;;;;;3.00;2.00;;;;;;;;5079821;28;45315;-79
2023/12/23 10:19:52;;;;;;;;;3.00;2.00;;;;;;;;5062057;28;47210;-77
2023/12/23 10:22:17;;;;;;;;;1.00;1.00;;;;;;;;5079909;28;46583;-78
2023/12/23 10:24:43;;;;;;;;;1.67;1.33;;;;;;;;5061847;28;45312;-79
2023/12/23 10:27:08;;;;;;;;;1.00;1.00;;;;;;;;5061276;28;45605;-78
2023/12/23 10:29:35;;;;;;;;;1.33;1.33;;;;;;;;5077827;28;46591;-80
2023/12/23 10:32:04;;;;;;;;;1.67;1.67;;;;;;;;5079441;28;46090;-78
2023/12/23 10:34:35;;;;;;;;;2.33;2.33;;;;;;;;5079761;28;45305;-79
2023/12/23 10:37:00;;;;;;;;;2.00;2.00;;;;;;;;5078949;28;45264;-76
2023/12/23 10:39:27;;;;;;;;;2.33;1.00;;;;;;;;5078758;28;46283;-77
2023/12/23 10:41:53;;;;;;;;;1.67;1.67;;;;;;;;5079188;27;45540;-78
2023/12/23 10:44:18;;;;;;;;;3.00;2.00;;;;;;;;5079359;28;45454;-78
2023/12/23 10:46:44;;;;;;;;;5.33;5.33;;;;;;;;5079908;28;45579;-79
2023/12/23 10:49:11;;;;;;;;;2.00;1.33;;;;;;;;5079777;28;45299;-81
2023/12/23 10:51:37;;;;;;;;;5.33;2.67;;;;;;;;5080994;28;46803;-79
2023/12/23 10:54:03;;;;;;;;;3.67;3.33;;;;;;;;5080229;28;45275;-83
2023/12/23 10:56:29;;;;;;;;;5.00;5.00;;;;;;;;5063593;28;45411;-81
2023/12/23 10:58:55;;;;;;;;;3.33;3.33;;;;;;;;5081891;27;45793;-80
2023/12/23 11:01:21;;;;;;;;;3.67;3.67;;;;;;;;5082409;27;45339;-79
2023/12/23 11:03:49;;;;;;;;;4.00;3.00;;;;;;;;5081224;27;45234;-81
2023/12/23 11:06:15;;;;;;;;;3.00;2.33;;;;;;;;5079442;27;45432;-80
2023/12/23 11:08:41;;;;;;;;;3.67;2.33;;;;;;;;5079528;28;45285;-80
2023/12/23 11:11:06;;;;;;;;;3.00;3.00;;;;;;;;5078613;28;47020;-80
2023/12/23 11:13:32;;;;;;;;;2.67;2.67;;;;;;;;5079430;28;45292;-79
2023/12/23 11:15:57;;;;;;;;;3.00;3.00;;;;;;;;5079378;28;45250;-78
2023/12/23 11:18:22;;;;;;;;;3.00;2.33;;;;;;;;5079488;28;45306;-79
2023/12/23 11:20:49;;;;;;;;;2.00;2.00;;;;;;;;5079015;28;45448;-79
2023/12/23 11:23:28;;;;;;;;;2.33;2.33;;;;;;;;5079292;28;45292;-79
2023/12/23 11:25:54;;;;;;;;;2.00;2.00;;;;;;;;5079619;28;45359;-79
2023/12/23 11:28:19;;;;;;;;;1.00;1.00;;;;;;;;5061068;28;46739;-78
2023/12/23 11:30:48;;;;;;;;;3.00;2.00;;;;;;;;5078844;28;48394;-79
2023/12/23 11:33:13;;;;;;;;;4.67;2.00;;;;;;;;5078539;28;45296;-79
2023/12/23 11:35:45;;;;;;;;;4.00;3.00;;;;;;;;5078273;28;45976;-82
2023/12/23 11:38:10;;;;;;;;;2.33;2.33;;;;;;;;5078368;28;45398;-79
2023/12/23 11:40:36;;;;;;;;;5.00;3.33;;;;;;;;5079222;28;45262;-79
2023/12/23 11:43:03;;;;;;;;;4.67;4.00;;;;;;;;5078752;28;45371;-79
2023/12/23 11:45:28;;;;;;;;;7.00;6.00;;;;;;;;5077470;28;45353;-78
2023/12/23 11:47:54;;;;;;;;;6.33;6.00;;;;;;;;5078237;28;45344;-81
2023/12/23 11:50:20;;;;;;;;;6.00;4.67;;;;;;;;5077377;28;45441;-80
2023/12/23 11:52:45;;;;;;;;;6.67;5.00;;;;;;;;5079017;28;45330;-82
2023/12/23 11:55:10;;;;;;;;;7.00;7.00;;;;;;;;5078248;28;45415;-80
2023/12/23 11:57:35;;;;;;;;;6.67;5.00;;;;;;;;5078414;28;45477;-76
2023/12/23 12:00:02;;;;;;;;;3.00;3.00;;;;;;;;5078898;28;46428;-77
2023/12/23 12:02:27;;;;;;;;;3.00;3.00;;;;;;;;5078889;27;45373;-77
2023/12/23 12:04:53;;;;;;;;;4.67;4.33;;;;;;;;5094928;27;45389;-79
2023/12/23 12:07:19;;;;;;;;;3.00;3.00;;;;;;;;5090508;27;46205;-79
2023/12/23 12:09:44;;;;;;;;;5.00;3.33;;;;;;;;5062689;28;47781;-79
2023/12/23 12:12:11;;;;;;;;;5.00;4.00;;;;;;;;5081329;28;45466;-79
2023/12/23 12:14:36;;;;;;;;;3.67;3.67;;;;;;;;5082576;28;45330;-79
2023/12/23 12:17:01;;;;;;;;;1.00;1.00;;;;;;;;5064573;28;47262;-78
2023/12/23 12:19:26;;;;;;;;;3.00;2.00;;;;;;;;5081756;28;45454;-77
2023/12/23 12:21:52;;;;;;;;;2.00;2.00;;;;;;;;5080221;28;45530;-77
2023/12/23 12:24:17;;;;;;;;;2.00;2.00;;;;;;;;5063419;28;45787;-82
2023/12/23 12:26:42;;;;;;;;;2.67;2.00;;;;;;;;5078386;27;46165;-79
2023/12/23 12:29:08;;;;;;;;;4.33;4.00;;;;;;;;5046680;28;47013;-83
2023/12/23 12:31:33;;;;;;;;;3.33;3.33;;;;;;;;5061048;28;45659;-79
2023/12/23 12:33:59;;;;;;;;;3.67;3.00;;;;;;;;5080317;27;45533;-79
2023/12/23 12:36:24;;;;;;;;;2.67;2.67;;;;;;;;5082095;28;45419;-78
2023/12/23 12:38:49;;;;;;;;;3.00;2.00;;;;;;;;5081524;28;46152;-78
2023/12/23 12:41:14;;;;;;;;;2.00;1.00;;;;;;;;5081933;28;45224;-78
2023/12/23 12:43:40;;;;;;;;;4.00;3.00;;;;;;;;5082106;28;45264;-79
2023/12/23 12:46:06;;;;;;;;;6.00;5.00;;;;;;;;5082044;28;45434;-81
2023/12/23 12:48:31;;;;;;;;;3.00;3.00;;;;;;;;5081746;28;45821;-79
2023/12/23 12:50:57;;;;;;;;;4.33;4.00;;;;;;;;5081366;28;45299;-79
2023/12/23 12:53:22;;;;;;;;;3.67;3.67;;;;;;;;5081090;28;45282;-78
2023/12/23 12:55:47;;;;;;;;;4.33;3.33;;;;;;;;5054716;28;46711;-79
2023/12/23 12:58:12;;;;;;;;;4.67;3.67;;;;;;;;5080166;28;46503;-81
2023/12/23 13:00:38;;;;;;;;;6.00;4.00;;;;;;;;5082056;28;45254;-81
2023/12/23 13:03:03;;;;;;;;;4.00;3.67;;;;;;;;5081322;28;45609;-79
2023/12/23 13:05:29;;;;;;;;;4.33;4.33;;;;;;;;5084632;27;46288;-80
2023/12/23 13:07:54;;;;;;;;;4.00;4.00;;;;;;;;5081365;28;45882;-80
2023/12/23 13:10:20;;;;;;;;;6.67;4.00;;;;;;;;5081216;27;45400;-79
2023/12/23 13:12:45;;;;;;;;;5.67;4.00;;;;;;;;5081483;28;45288;-81
2023/12/23 13:15:10;;;;;;;;;3.00;3.00;;;;;;;;5077182;27;47120;-80
2023/12/23 13:17:35;;;;;;;;;2.00;2.00;;;;;;;;5059683;28;47020;-80
2023/12/23 13:20:00;;;;;;;;;3.33;3.00;;;;;;;;5060920;28;45673;-80
2023/12/23 13:22:26;;;;;;;;;3.67;3.67;;;;;;;;5062800;28;45416;-79
2023/12/23 13:24:51;;;;;;;;;2.00;2.00;;;;;;;;5073556;28;45478;-80
2023/12/23 13:27:18;;;;;;;;;2.00;2.00;;;;;;;;5063429;28;45362;-80
2023/12/23 13:29:43;;;;;;;;;1.00;1.00;;;;;;;;5054580;28;45660;-80
2023/12/23 13:32:08;;;;;;;;;3.00;3.00;;;;;;;;5081153;28;45357;-80
2023/12/23 13:34:33;;;;;;;;;2.33;2.33;;;;;;;;5080404;28;45371;-79
2023/12/23 13:36:59;;;;;;;;;1.67;1.67;;;;;;;;5061927;28;48571;-79
2023/12/23 13:39:24;;;;;;;;;2.00;2.00;;;;;;;;5078659;28;45472;-80
2023/12/23 13:41:49;;;;;;;;;2.33;2.00;;;;;;;;5062010;28;45279;-80
2023/12/23 13:44:14;;;;;;;;;1.67;1.00;;;;;;;;5079239;28;45972;-81
2023/12/23 13:46:40;;;;;;;;;3.33;3.00;;;;;;;;5079721;28;45509;-81
2023/12/23 13:49:05;;;;;;;;;1.00;1.00;;;;;;;;5080030;28;45283;-80
2023/12/23 13:51:32;;;;;;;;;2.00;2.00;;;;;;;;5060948;28;45484;-79
2023/12/23 13:53:57;;;;;;;;;3.67;3.67;;;;;;;;5080080;28;45481;-79
2023/12/23 13:56:25;;;;;;;;;2.00;2.00;;;;;;;;5079596;28;45321;-81
2023/12/23 13:58:50;;;;;;;;;2.67;1.00;;;;;;;;5080424;28;45476;-80
2023/12/23 14:01:15;;;;;;;;;1.00;1.00;;;;;;;;5080272;28;45655;-80
2023/12/23 14:03:40;;;;;;;;;3.00;3.00;;;;;;;;5095660;27;46366;-82
2023/12/23 14:06:06;;;;;;;;;3.00;3.00;;;;;;;;5079765;27;45396;-80
2023/12/23 14:08:31;;;;;;;;;2.67;2.33;;;;;;;;5079562;27;45285;-80
2023/12/23 14:10:56;;;;;;;;;4.33;4.00;;;;;;;;5096058;27;45353;-82
2023/12/23 14:13:21;;;;;;;;;3.00;3.00;;;;;;;;5095634;27;46109;-81
2023/12/23 14:15:46;;;;;;;;;6.00;3.67;;;;;;;;5079655;28;45243;-80
2023/12/23 14:18:11;;;;;;;;;3.33;3.33;;;;;;;;5078970;28;45655;-80
2023/12/23 14:20:37;;;;;;;;;1.67;1.67;;;;;;;;5079412;28;45530;-81
2023/12/23 14:23:03;;;;;;;;;4.00;4.00;;;;;;;;5077987;28;45476;-82
2023/12/23 14:25:29;;;;;;;;;4.00;4.00;;;;;;;;5078945;28;45303;-80
2023/12/23 14:27:54;;;;;;;;;3.00;3.00;;;;;;;;5078315;28;45427;-80
2023/12/23 14:30:19;;;;;;;;;3.00;3.00;;;;;;;;5078178;28;46394;-80
2023/12/23 14:32:44;;;;;;;;;2.00;2.00;;;;;;;;5078091;28;45429;-79